createdAt,value
2018-07-12T00:02:13.437Z,65.86
2018-07-12T00:04:41.424Z,66.79
2018-07-12T00:07:09.406Z,65.52
2018-07-12T00:09:37.417Z,66.03
2018-07-12T00:12:05.455Z,66.21
2018-07-12T00:14:33.459Z,66.30
2018-07-12T00:17:01.863Z,66.90
2018-07-12T00:19:29.876Z,66.00
2018-07-12T00:21:57.859Z,66.02
2018-07-12T00:24:25.880Z,66.89
2018-07-12T00:26:53.871Z,67.18
2018-07-12T00:29:22.022Z,67.31
2018-07-12T00:31:50.699Z,67.34
2018-07-12T00:34:18.679Z,66.96
2018-07-12T00:36:46.675Z,67.29
2018-07-12T00:39:14.665Z,66.75
2018-07-12T00:41:42.684Z,67.11
2018-07-12T00:44:10.673Z,67.21
2018-07-12T00:46:38.702Z,66.21
2018-07-12T00:49:06.693Z,65.82
2018-07-12T00:51:34.706Z,65.22
2018-07-12T00:54:02.736Z,65.34
2018-07-12T00:56:30.781Z,66.18
2018-07-12T00:58:59.080Z,66.29
2018-07-12T01:01:27.052Z,66.20
2018-07-12T01:03:55.115Z,65.80
2018-07-12T01:06:23.094Z,65.78
2018-07-12T01:08:51.086Z,65.06
2018-07-12T01:11:19.374Z,65.03
2018-07-12T01:13:47.410Z,65.18
2018-07-12T01:16:15.442Z,65.27
2018-07-12T01:18:43.469Z,65.43
2018-07-12T01:21:12.260Z,66.33
2018-07-12T01:23:40.859Z,66.54
2018-07-12T01:26:08.926Z,65.49
2018-07-12T01:28:36.884Z,65.22
2018-07-12T01:31:04.854Z,65.45
2018-07-12T01:33:32.848Z,65.08
2018-07-12T01:36:00.970Z,64.89
2018-07-12T01:38:28.903Z,64.99
2018-07-12T01:40:57.012Z,65.38
2018-07-12T01:43:25.040Z,65.57
2018-07-12T01:45:53.060Z,65.61
2018-07-12T01:48:21.145Z,66.15
2018-07-12T01:50:49.848Z,66.50
2018-07-12T01:53:17.825Z,65.16
2018-07-12T01:55:45.870Z,65.11
2018-07-12T01:58:13.843Z,65.10
2018-07-12T02:00:42.173Z,65.21
2018-07-12T02:03:10.137Z,65.19
2018-07-12T02:05:38.172Z,65.47
2018-07-12T02:08:06.145Z,66.20
2018-07-12T02:10:34.133Z,65.71
2018-07-12T02:13:02.101Z,66.33
2018-07-12T02:15:30.415Z,65.52
2018-07-12T02:17:58.414Z,65.68
2018-07-12T02:20:26.406Z,65.38
2018-07-12T02:22:54.573Z,64.74
2018-07-12T02:25:22.553Z,64.04
2018-07-12T02:27:50.549Z,64.30
2018-07-12T02:30:18.549Z,64.64
2018-07-12T02:32:46.850Z,64.33
2018-07-12T02:35:14.934Z,64.37
2018-07-12T02:37:42.830Z,65.61
2018-07-12T02:40:10.848Z,66.60
2018-07-12T02:42:38.842Z,67.67
2018-07-12T02:45:06.885Z,67.97
2018-07-12T02:47:34.883Z,68.12
2018-07-12T02:50:02.939Z,67.83
2018-07-12T02:52:30.894Z,68.13
2018-07-12T02:54:58.917Z,68.45
2018-07-12T02:57:26.898Z,67.58
2018-07-12T02:59:54.913Z,68.73
2018-07-12T03:02:22.890Z,68.28
2018-07-12T03:04:50.944Z,67.30
2018-07-12T03:07:18.917Z,66.53
2018-07-12T03:09:47.236Z,66.53
2018-07-12T03:12:15.229Z,66.51
2018-07-12T03:14:43.224Z,66.82
2018-07-12T03:17:11.630Z,66.57
2018-07-12T03:19:39.595Z,65.72
2018-07-12T03:22:07.595Z,66.37
2018-07-12T03:24:35.562Z,66.29
2018-07-12T03:27:03.611Z,65.42
2018-07-12T03:29:31.596Z,65.14
2018-07-12T03:32:00.389Z,66.04
2018-07-12T03:34:28.405Z,65.69
2018-07-12T03:36:56.414Z,65.92
2018-07-12T03:39:24.394Z,66.21
2018-07-12T03:41:52.397Z,66.45
2018-07-12T03:44:20.419Z,66.79
2018-07-12T03:46:48.402Z,66.54
2018-07-12T03:49:16.381Z,67.08
2018-07-12T03:51:44.367Z,67.48
2018-07-12T03:54:12.399Z,68.12
2018-07-12T03:56:41.198Z,68.43
2018-07-12T03:59:09.175Z,68.20
2018-07-12T04:01:37.216Z,68.51
2018-07-12T04:04:05.417Z,69.41
2018-07-12T04:06:33.909Z,68.39
2018-07-12T04:09:01.898Z,69.04
2018-07-12T04:11:29.881Z,67.97
2018-07-12T04:13:57.912Z,68.75
2018-07-12T04:16:25.903Z,69.64
2018-07-12T04:18:53.933Z,68.54
2018-07-12T04:21:21.962Z,68.95
2018-07-12T04:23:49.893Z,69.99
2018-07-12T04:26:17.854Z,69.96
2018-07-12T04:28:45.892Z,69.69
2018-07-12T04:31:13.903Z,70.65
2018-07-12T04:33:41.924Z,71.19
2018-07-12T04:36:09.921Z,70.43
2018-07-12T04:38:38.391Z,71.07
2018-07-12T04:41:06.418Z,70.09
2018-07-12T04:43:34.431Z,70.56
2018-07-12T04:46:02.431Z,70.48
2018-07-12T04:48:30.455Z,70.35
2018-07-12T04:50:58.442Z,70.87
2018-07-12T04:53:26.447Z,69.95
2018-07-12T04:55:54.670Z,70.14
2018-07-12T04:58:23.554Z,69.84
2018-07-12T05:00:51.482Z,70.26
2018-07-12T05:03:19.481Z,70.01
2018-07-12T05:05:47.495Z,70.36
2018-07-12T05:08:15.516Z,71.22
2018-07-12T05:10:43.470Z,71.19
2018-07-12T05:13:11.434Z,71.73
2018-07-12T05:15:39.517Z,70.63
2018-07-12T05:18:07.508Z,69.92
2018-07-12T05:20:35.593Z,70.25
2018-07-12T05:23:03.598Z,70.43
2018-07-12T05:25:31.636Z,70.21
2018-07-12T05:27:59.597Z,70.13
2018-07-12T05:30:27.595Z,70.46
2018-07-12T05:32:55.676Z,70.38
2018-07-12T05:35:23.771Z,69.62
2018-07-12T05:37:52.820Z,69.35
2018-07-12T05:40:21.870Z,69.43
2018-07-12T05:42:50.929Z,70.06
2018-07-12T05:45:20.098Z,69.97
2018-07-12T05:47:49.169Z,70.21
2018-07-12T05:50:18.302Z,70.44
2018-07-12T05:52:48.036Z,70.05
2018-07-12T05:55:17.212Z,69.17
2018-07-12T05:57:46.330Z,69.12
2018-07-12T06:00:15.821Z,68.55
2018-07-12T06:02:44.954Z,67.91
2018-07-12T06:05:14.053Z,68.14
2018-07-12T06:07:43.092Z,67.88
2018-07-12T06:10:12.204Z,67.69
2018-07-12T06:12:41.394Z,68.56
2018-07-12T06:15:10.509Z,67.37
2018-07-12T06:17:39.637Z,66.97
2018-07-12T06:20:09.590Z,67.02
2018-07-12T06:22:38.747Z,66.67
2018-07-12T06:25:08.407Z,66.61
2018-07-12T06:27:38.069Z,66.80
2018-07-12T06:30:07.295Z,67.82
2018-07-12T06:32:36.312Z,67.08
2018-07-12T06:35:05.404Z,67.15
2018-07-12T06:37:34.622Z,66.98
2018-07-12T06:40:04.005Z,66.88
2018-07-12T06:42:33.148Z,67.05
2018-07-12T06:45:02.331Z,66.50
2018-07-12T06:47:31.490Z,66.55
2018-07-12T06:50:00.682Z,66.53
2018-07-12T06:52:29.997Z,66.87
2018-07-12T06:54:59.115Z,67.33
2018-07-12T06:57:28.248Z,67.46
2018-07-12T06:59:57.315Z,68.01
2018-07-12T07:02:26.405Z,67.54
2018-07-12T07:04:55.512Z,67.53
2018-07-12T07:07:24.629Z,67.05
2018-07-12T07:09:53.744Z,67.76
2018-07-12T07:12:22.835Z,68.38
2018-07-12T07:14:51.936Z,68.22
2018-07-12T07:17:21.078Z,66.53
2018-07-12T07:19:50.206Z,66.94
2018-07-12T07:22:19.373Z,66.42
2018-07-12T07:24:48.459Z,66.62
2018-07-12T07:27:17.574Z,65.76
2018-07-12T07:29:46.645Z,65.54
2018-07-12T07:32:16.939Z,65.84
2018-07-12T07:34:46.107Z,65.47
2018-07-12T07:37:15.433Z,66.05
2018-07-12T07:39:44.524Z,66.27
2018-07-12T07:42:14.625Z,65.34
2018-07-12T07:44:43.916Z,65.28
2018-07-12T07:47:13.022Z,66.09
2018-07-12T07:49:42.180Z,65.28
2018-07-12T07:52:11.661Z,66.05
2018-07-12T07:54:40.898Z,65.80
2018-07-12T07:57:10.591Z,65.21
2018-07-12T07:59:40.502Z,65.52
2018-07-12T08:02:09.651Z,64.77
2018-07-12T08:04:38.822Z,65.34
2018-07-12T08:07:08.268Z,64.87
2018-07-12T08:09:37.556Z,65.24
2018-07-12T08:12:06.658Z,64.92
2018-07-12T08:14:35.958Z,64.66
2018-07-12T08:17:05.063Z,63.67
2018-07-12T08:19:34.306Z,62.62
2018-07-12T08:22:07.279Z,62.46
2018-07-12T08:24:36.713Z,61.56
2018-07-12T08:27:06.176Z,61.57
2018-07-12T08:29:35.365Z,62.71
2018-07-12T08:32:05.268Z,62.52
2018-07-12T08:34:34.428Z,62.94
2018-07-12T08:37:03.713Z,62.12
2018-07-12T08:39:32.939Z,61.20
2018-07-12T08:42:02.161Z,62.08
2018-07-12T08:44:31.394Z,62.52
2018-07-12T08:47:00.595Z,62.37
2018-07-12T08:49:29.730Z,61.83
2018-07-12T08:51:58.886Z,62.07
2018-07-12T08:54:27.989Z,62.08
2018-07-12T08:56:57.162Z,61.85
2018-07-12T08:59:26.338Z,61.52
2018-07-12T09:01:55.452Z,62.05
2018-07-12T09:04:25.418Z,59.88
2018-07-12T09:06:54.585Z,59.76
2018-07-12T09:09:23.745Z,59.74
2018-07-12T09:11:53.628Z,58.47
2018-07-12T09:14:23.714Z,58.32
2018-07-12T09:16:52.900Z,58.17
2018-07-12T09:19:22.068Z,58.21
2018-07-12T09:21:51.623Z,56.49
2018-07-12T09:24:20.950Z,55.60
2018-07-12T09:26:50.056Z,54.62
2018-07-12T09:29:23.288Z,53.90
2018-07-12T09:31:52.369Z,54.77
2018-07-12T09:34:21.480Z,55.83
2018-07-12T09:36:50.625Z,55.48
2018-07-12T09:39:19.829Z,55.43
2018-07-12T09:41:49.066Z,55.63
2018-07-12T09:44:18.733Z,54.86
2018-07-12T09:46:47.777Z,53.92
2018-07-12T09:49:17.080Z,55.12
2018-07-12T09:51:46.466Z,55.26
2018-07-12T09:54:15.954Z,54.95
2018-07-12T09:56:56.309Z,55.23
2018-07-12T09:59:25.503Z,54.27
2018-07-12T10:01:59.727Z,53.93
2018-07-12T10:04:28.841Z,53.81
2018-07-12T10:07:03.370Z,53.73
2018-07-12T10:09:37.998Z,53.49
2018-07-12T10:12:15.011Z,53.83
2018-07-12T10:14:49.685Z,53.29
2018-07-12T10:17:24.111Z,53.87
2018-07-12T10:19:53.177Z,52.88
2018-07-12T10:22:22.325Z,52.88
2018-07-12T10:24:51.575Z,52.41
2018-07-12T10:27:20.719Z,52.55
2018-07-12T10:29:49.839Z,52.09
2018-07-12T10:32:19.318Z,51.76
2018-07-12T10:34:48.455Z,52.74
2018-07-12T10:37:17.925Z,52.75
2018-07-12T10:39:47.253Z,51.66
2018-07-12T10:42:16.663Z,50.98
2018-07-12T10:44:45.819Z,50.41
2018-07-12T10:47:14.871Z,50.10
2018-07-12T10:49:43.964Z,50.30
2018-07-12T10:52:13.335Z,50.29
2018-07-12T10:54:42.464Z,48.80
2018-07-12T10:57:11.871Z,47.88
2018-07-12T10:59:41.237Z,48.31
2018-07-12T11:02:10.413Z,47.12
2018-07-12T11:04:39.819Z,47.00
2018-07-12T11:07:09.183Z,47.41
2018-07-12T11:09:38.303Z,46.58
2018-07-12T11:12:07.461Z,47.94
2018-07-12T11:14:36.503Z,48.16
2018-07-12T11:17:05.598Z,48.40
2018-07-12T11:19:34.661Z,48.58
2018-07-12T11:22:03.710Z,49.15
2018-07-12T11:24:32.774Z,49.23
2018-07-12T11:27:01.814Z,49.56
2018-07-12T11:29:42.305Z,49.78
2018-07-12T11:32:11.429Z,47.82
2018-07-12T11:34:40.974Z,47.08
2018-07-12T11:37:14.762Z,46.94
2018-07-12T11:39:43.885Z,44.07
2018-07-12T11:42:13.274Z,44.94
2018-07-12T11:44:42.399Z,45.05
2018-07-12T11:47:11.986Z,45.43
2018-07-12T11:49:41.039Z,44.91
2018-07-12T11:52:10.153Z,45.82
2018-07-12T11:54:39.234Z,45.72
2018-07-12T11:57:08.346Z,46.13
2018-07-12T11:59:37.440Z,45.21
2018-07-12T12:02:06.604Z,44.70
2018-07-12T12:04:35.709Z,45.16
2018-07-12T12:07:04.862Z,45.29
2018-07-12T12:09:34.009Z,43.70
2018-07-12T12:12:03.459Z,42.88
2018-07-12T12:14:32.703Z,42.25
2018-07-12T12:17:01.749Z,41.60
2018-07-12T12:19:30.939Z,40.34
2018-07-12T12:22:00.732Z,39.97
2018-07-12T12:24:29.821Z,40.94
2018-07-12T12:26:58.855Z,39.43
2018-07-12T12:29:27.971Z,39.87
2018-07-12T12:31:57.043Z,40.74
2018-07-12T12:34:26.109Z,41.74
2018-07-12T12:36:55.179Z,41.84
2018-07-12T12:39:24.491Z,42.35
2018-07-12T12:41:53.572Z,43.19
2018-07-12T12:44:22.665Z,42.08
2018-07-12T12:46:51.786Z,42.87
2018-07-12T12:49:20.993Z,42.38
2018-07-12T12:51:50.077Z,41.88
2018-07-12T12:54:19.167Z,42.64
2018-07-12T12:56:48.227Z,40.99
2018-07-12T12:59:17.459Z,40.59
2018-07-12T13:01:46.498Z,38.73
2018-07-12T13:04:15.655Z,37.04
2018-07-12T13:06:44.874Z,37.23
2018-07-12T13:09:13.894Z,37.00
2018-07-12T13:11:42.937Z,38.96
2018-07-12T13:14:11.998Z,39.65
2018-07-12T13:16:41.127Z,39.37
2018-07-12T13:19:10.201Z,39.50
2018-07-12T13:21:39.365Z,39.67
2018-07-12T13:24:08.615Z,39.46
2018-07-12T13:26:37.761Z,40.20
2018-07-12T13:29:07.155Z,39.29
2018-07-12T13:31:36.216Z,37.47
2018-07-12T13:34:05.470Z,37.68
2018-07-12T13:36:34.584Z,38.18
2018-07-12T13:39:04.291Z,39.07
2018-07-12T13:41:33.666Z,39.50
2018-07-12T13:44:14.151Z,37.92
2018-07-12T13:46:43.370Z,38.41
2018-07-12T13:49:12.869Z,36.59
2018-07-12T13:51:42.078Z,37.38
2018-07-12T13:54:11.134Z,35.63
2018-07-12T13:56:40.321Z,34.38
2018-07-12T13:59:09.801Z,33.39
2018-07-12T14:01:39.034Z,35.06
2018-07-12T14:04:09.089Z,34.63
2018-07-12T14:06:38.505Z,34.77
2018-07-12T14:09:10.159Z,33.70
2018-07-12T14:11:39.482Z,34.23
2018-07-12T14:14:09.086Z,34.30
2018-07-12T14:16:38.415Z,33.64
2018-07-12T14:19:07.595Z,35.52
2018-07-12T14:21:36.613Z,36.30
2018-07-12T14:24:05.701Z,36.97
2018-07-12T14:26:34.853Z,36.89
2018-07-12T14:29:03.989Z,36.27
2018-07-12T14:31:33.086Z,35.32
2018-07-12T14:34:02.258Z,35.74
2018-07-12T14:36:31.375Z,35.42
2018-07-12T14:39:00.435Z,35.71
2018-07-12T14:41:29.495Z,35.82
2018-07-12T14:43:58.663Z,34.36
2018-07-12T14:46:27.784Z,33.31
2018-07-12T14:48:56.971Z,33.31
2018-07-12T14:51:26.039Z,32.32
2018-07-12T14:53:55.689Z,32.13
2018-07-12T14:56:24.940Z,31.34
2018-07-12T14:58:57.608Z,31.91
2018-07-12T15:01:26.780Z,31.02
2018-07-12T15:03:55.950Z,30.77
2018-07-12T15:06:25.935Z,30.90
2018-07-12T15:08:57.936Z,30.04
2018-07-12T15:11:27.039Z,30.78
2018-07-12T15:13:56.530Z,30.13
2018-07-12T15:16:25.650Z,31.58
2018-07-12T15:21:56.017Z,32.34
2018-07-12T15:24:25.591Z,32.26
2018-07-12T15:26:54.798Z,33.00
2018-07-12T15:29:24.043Z,33.86
2018-07-12T15:31:55.481Z,33.55
2018-07-12T15:34:26.061Z,32.49
2018-07-12T15:36:55.145Z,33.69
2018-07-12T15:39:24.571Z,32.42
2018-07-12T15:41:53.733Z,31.74
2018-07-12T15:44:22.862Z,31.33
2018-07-12T15:46:52.010Z,31.53
2018-07-12T15:49:21.442Z,31.10
2018-07-12T15:51:50.758Z,30.23
2018-07-12T15:54:19.890Z,30.68
2018-07-12T15:56:49.076Z,30.58
2018-07-12T15:59:18.647Z,29.01
2018-07-12T16:01:48.069Z,27.71
2018-07-12T16:04:17.319Z,29.66
2018-07-12T16:06:46.474Z,29.34
2018-07-12T16:09:15.592Z,29.05
2018-07-12T16:11:44.770Z,29.59
2018-07-12T16:14:13.874Z,27.71
2018-07-12T16:16:43.055Z,28.43
2018-07-12T16:19:12.640Z,27.89
2018-07-12T16:21:41.769Z,29.07
2018-07-12T16:24:10.910Z,30.91
2018-07-12T16:26:40.252Z,31.81
2018-07-12T16:29:09.311Z,31.24
2018-07-12T16:31:38.451Z,30.21
2018-07-12T16:34:07.902Z,30.28
2018-07-12T16:36:37.004Z,30.43
2018-07-12T16:39:07.273Z,30.91
2018-07-12T16:41:36.417Z,31.72
2018-07-12T16:44:05.899Z,31.16
2018-07-12T16:46:34.950Z,31.41
2018-07-12T16:49:04.090Z,29.35
2018-07-12T16:51:33.414Z,29.40
2018-07-12T16:54:02.730Z,29.79
2018-07-12T16:56:31.826Z,29.82
2018-07-12T16:59:01.084Z,30.19
2018-07-12T17:01:30.258Z,30.04
2018-07-12T17:03:59.553Z,30.30
2018-07-12T17:06:29.027Z,30.32
2018-07-12T17:08:58.214Z,28.92
2018-07-12T17:11:27.391Z,29.86
2018-07-12T17:13:56.654Z,30.52
2018-07-12T17:16:25.751Z,32.15
2018-07-12T17:18:54.841Z,32.96
2018-07-12T17:21:23.954Z,34.02
2018-07-12T17:23:53.048Z,33.96
2018-07-12T17:26:22.116Z,34.35
2018-07-12T17:28:51.278Z,34.99
2018-07-12T17:31:20.387Z,34.00
2018-07-12T17:33:49.504Z,34.19
2018-07-12T17:36:18.719Z,34.43
2018-07-12T17:38:47.836Z,34.03
2018-07-12T17:41:17.070Z,35.18
2018-07-12T17:43:46.110Z,36.16
2018-07-12T17:46:15.278Z,35.18
2018-07-12T17:48:44.423Z,35.66
2018-07-12T17:51:13.625Z,35.05
2018-07-12T17:53:42.743Z,35.18
2018-07-12T17:56:12.036Z,36.02
2018-07-12T17:58:41.288Z,36.43
2018-07-12T18:01:10.429Z,35.52
2018-07-12T18:03:39.494Z,35.92
2018-07-12T18:06:08.905Z,37.32
2018-07-12T18:08:38.134Z,36.71
2018-07-12T18:11:07.420Z,36.35
2018-07-12T18:13:36.518Z,36.16
2018-07-12T18:16:05.942Z,36.59
2018-07-12T18:18:35.104Z,35.44
2018-07-12T18:21:04.714Z,36.96
2018-07-12T18:23:33.879Z,37.88
2018-07-12T18:26:03.080Z,35.71
2018-07-12T18:28:32.232Z,35.76
2018-07-12T18:31:01.285Z,36.50
2018-07-12T18:33:30.722Z,36.08
2018-07-12T18:36:00.192Z,37.06
2018-07-12T18:38:29.728Z,37.73
2018-07-12T18:40:58.780Z,37.79
2018-07-12T18:43:27.953Z,37.10
2018-07-12T18:45:57.485Z,37.52
2018-07-12T18:48:26.678Z,38.01
2018-07-12T18:50:55.934Z,37.76
2018-07-12T18:53:25.079Z,37.97
2018-07-12T18:55:54.198Z,37.25
2018-07-12T18:58:23.470Z,37.95
2018-07-12T19:00:52.510Z,37.79
2018-07-12T19:03:21.611Z,37.87
2018-07-12T19:05:50.683Z,38.99
2018-07-12T19:08:20.061Z,39.09
2018-07-12T19:10:49.153Z,38.49
2018-07-12T19:13:18.448Z,39.72
2018-07-12T19:15:47.571Z,39.99
2018-07-12T19:18:16.681Z,39.61
2018-07-12T19:20:45.799Z,39.47
2018-07-12T19:23:14.801Z,39.37
2018-07-12T19:25:43.919Z,39.91
2018-07-12T19:28:13.069Z,40.84
2018-07-12T19:30:42.174Z,40.76
2018-07-12T19:33:11.262Z,40.78
2018-07-12T19:35:40.390Z,40.83
2018-07-12T19:38:09.631Z,40.56
2018-07-12T19:40:38.810Z,41.23
2018-07-12T19:43:07.904Z,41.09
2018-07-12T19:45:37.011Z,40.11
2018-07-12T19:48:06.470Z,41.18
2018-07-12T19:50:35.542Z,41.40
2018-07-12T19:53:04.720Z,43.21
2018-07-12T19:55:33.847Z,41.93
2018-07-12T19:58:02.978Z,43.17
2018-07-12T20:00:32.040Z,43.00
2018-07-12T20:03:01.207Z,42.69
2018-07-12T20:05:31.097Z,43.36
2018-07-12T20:08:00.154Z,44.25
2018-07-12T20:10:29.305Z,43.41
2018-07-12T20:12:58.475Z,44.55
2018-07-12T20:15:27.787Z,44.95
2018-07-12T20:17:56.829Z,44.55
2018-07-12T20:20:25.956Z,45.21
2018-07-12T20:22:55.103Z,45.71
2018-07-12T20:25:24.423Z,44.88
2018-07-12T20:27:53.415Z,46.39
2018-07-12T20:30:22.525Z,46.70
2018-07-12T20:32:51.590Z,45.86
2018-07-12T20:35:20.655Z,46.89
2018-07-12T20:37:49.699Z,45.96
2018-07-12T20:40:19.231Z,47.07
2018-07-12T20:42:48.340Z,46.78
2018-07-12T20:45:17.455Z,47.05
2018-07-12T20:47:46.554Z,48.02
2018-07-12T20:50:15.646Z,48.12
2018-07-12T20:52:44.769Z,48.45
2018-07-12T20:55:14.001Z,48.73
2018-07-12T20:57:43.138Z,47.99
2018-07-12T21:00:12.261Z,48.85
2018-07-12T21:02:41.424Z,48.41
2018-07-12T21:05:10.544Z,48.59
2018-07-12T21:07:39.651Z,48.93
2018-07-12T21:10:08.718Z,49.60
2018-07-12T21:12:37.850Z,50.39
2018-07-12T21:15:06.914Z,50.80
2018-07-12T21:17:36.041Z,52.80
2018-07-12T21:20:05.832Z,52.70
2018-07-12T21:22:35.226Z,52.83
2018-07-12T21:25:04.608Z,53.75
2018-07-12T21:27:33.703Z,53.60
2018-07-12T21:30:02.822Z,53.09
2018-07-12T21:32:31.999Z,53.61
2018-07-12T21:35:01.074Z,52.11
2018-07-12T21:37:30.367Z,51.95
2018-07-12T21:39:59.458Z,51.86
2018-07-12T21:42:29.106Z,52.45
2018-07-12T21:44:58.593Z,53.31
2018-07-12T21:47:30.623Z,53.64
2018-07-12T21:49:59.682Z,54.93
2018-07-12T21:52:28.801Z,54.86
2018-07-12T21:54:58.068Z,55.65
2018-07-12T21:57:27.177Z,55.47
2018-07-12T21:59:56.273Z,55.33
2018-07-12T22:02:25.430Z,55.50
2018-07-12T22:05:01.697Z,55.49
2018-07-12T22:08:10.665Z,56.01
2018-07-12T22:10:39.833Z,56.16
2018-07-12T22:13:09.120Z,56.75
2018-07-12T22:15:38.184Z,57.26
2018-07-12T22:18:07.496Z,57.37
2018-07-12T22:20:36.673Z,57.69
2018-07-12T22:23:05.741Z,58.19
2018-07-12T22:25:34.831Z,58.36
2018-07-12T22:28:03.853Z,59.41
2018-07-12T22:30:33.039Z,59.20
2018-07-12T22:33:04.649Z,58.99
2018-07-12T22:35:33.723Z,58.47
2018-07-12T22:38:03.635Z,58.66
2018-07-12T22:40:33.044Z,58.93
2018-07-12T22:43:02.213Z,58.63
2018-07-12T22:45:31.388Z,59.35
2018-07-12T22:48:00.495Z,58.62
2018-07-12T22:50:29.515Z,58.39
2018-07-12T22:52:58.661Z,59.97
2018-07-12T22:55:27.723Z,59.62
2018-07-12T22:57:56.767Z,60.20
2018-07-12T23:00:25.819Z,59.73
2018-07-12T23:02:55.062Z,59.34
2018-07-12T23:05:24.118Z,59.89
2018-07-12T23:07:53.261Z,59.71
2018-07-12T23:10:22.355Z,59.22
2018-07-12T23:12:51.489Z,59.98
2018-07-12T23:15:20.539Z,60.29
2018-07-12T23:17:49.642Z,60.42
2018-07-12T23:20:18.736Z,60.29
2018-07-12T23:22:47.870Z,60.40
2018-07-12T23:25:16.999Z,60.87
2018-07-12T23:27:46.094Z,60.99
2018-07-12T23:30:15.193Z,60.23
2018-07-12T23:32:44.282Z,60.34
2018-07-12T23:35:13.307Z,61.02
2018-07-12T23:37:42.398Z,60.95
2018-07-12T23:40:11.471Z,61.33
2018-07-12T23:42:40.530Z,61.34
2018-07-12T23:45:09.609Z,60.42
2018-07-12T23:47:38.666Z,62.19
2018-07-12T23:50:07.757Z,61.72
2018-07-12T23:52:36.884Z,61.25
2018-07-12T23:55:06.386Z,61.55
2018-07-12T23:57:35.410Z,62.79
